createdAt,value
2023-05-10T00:02:05.199Z,100518.59
2023-05-10T00:04:34.255Z,100514.38
2023-05-10T00:07:03.272Z,100514.31
2023-05-10T00:09:29.962Z,100514.25
2023-05-10T00:11:56.604Z,100515.94
2023-05-10T00:14:23.324Z,100515.03
2023-05-10T00:16:50.138Z,100512.31
2023-05-10T00:19:19.514Z,100516.72
2023-05-10T00:21:48.417Z,100508.03
2023-05-10T00:24:17.634Z,100508.91
2023-05-10T00:26:49.316Z,100512.31
2023-05-10T00:29:15.911Z,100510.50
2023-05-10T00:31:42.543Z,100510.44
2023-05-10T00:34:09.998Z,100514.69
2023-05-10T00:36:36.581Z,100503.19
2023-05-10T00:39:04.972Z,100508.28
2023-05-10T00:41:34.772Z,100508.97
2023-05-10T00:44:05.263Z,100509.84
2023-05-10T00:46:32.093Z,100512.41
2023-05-10T00:49:03.401Z,100509.63
2023-05-10T00:51:30.160Z,100508.69
2023-05-10T00:54:01.661Z,100507.81
2023-05-10T00:56:29.633Z,100505.22
2023-05-10T00:58:56.625Z,100493.06
2023-05-10T01:01:23.757Z,100507.03
2023-05-10T01:03:55.846Z,100503.34
2023-05-10T01:06:22.499Z,100503.09
2023-05-10T01:08:49.155Z,100500.50
2023-05-10T01:11:16.202Z,100503.88
2023-05-10T01:13:43.807Z,100505.44
2023-05-10T01:16:10.511Z,100504.41
2023-05-10T01:18:38.056Z,100501.56
2023-05-10T01:21:07.864Z,100498.88
2023-05-10T01:23:52.836Z,100502.28
2023-05-10T01:26:25.275Z,100505.78
2023-05-10T01:28:57.624Z,100501.44
2023-05-10T01:31:46.115Z,100490.19
2023-05-10T01:34:21.746Z,100494.31
2023-05-10T01:36:48.406Z,100498.63
2023-05-10T01:39:21.770Z,100498.72
2023-05-10T01:42:00.635Z,100495.06
2023-05-10T01:44:31.007Z,100502.97
2023-05-10T01:47:23.969Z,100495.97
2023-05-10T01:49:54.018Z,100497.50
2023-05-10T01:52:26.036Z,100495.81
2023-05-10T01:54:55.654Z,100501.97
2023-05-10T01:57:23.044Z,100500.31
2023-05-10T01:59:52.185Z,100490.22
2023-05-10T02:02:20.109Z,100492.09
2023-05-10T02:04:49.141Z,100477.41
2023-05-10T02:07:15.828Z,100478.38
2023-05-10T02:09:45.410Z,100485.41
2023-05-10T02:12:17.219Z,100483.81
2023-05-10T02:14:43.821Z,100476.00
2023-05-10T02:17:10.766Z,100469.13
2023-05-10T02:19:38.312Z,100478.69
2023-05-10T02:22:10.412Z,100473.47
2023-05-10T02:24:37.236Z,100468.19
2023-05-10T02:27:04.049Z,100470.72
2023-05-10T02:29:30.714Z,100464.56
2023-05-10T02:31:59.756Z,100469.69
2023-05-10T02:34:29.067Z,100461.78
2023-05-10T02:36:58.605Z,100470.72
2023-05-10T02:39:26.024Z,100477.75
2023-05-10T02:41:52.723Z,100462.88
2023-05-10T02:44:20.223Z,100471.69
2023-05-10T02:46:49.505Z,100475.28
2023-05-10T02:49:16.417Z,100468.34
2023-05-10T02:51:47.793Z,100461.41
2023-05-10T02:54:17.000Z,100469.19
2023-05-10T02:56:44.671Z,100470.16
2023-05-10T02:59:13.549Z,100474.34
2023-05-10T03:01:40.371Z,100467.47
2023-05-10T03:04:09.624Z,100472.59
2023-05-10T03:06:36.259Z,100471.81
2023-05-10T03:09:04.418Z,100483.13
2023-05-10T03:11:50.498Z,100470.25
2023-05-10T03:14:46.706Z,100476.28
2023-05-10T03:17:26.194Z,100475.13
2023-05-10T03:19:58.766Z,100478.34
2023-05-10T03:22:28.846Z,100472.75
2023-05-10T03:24:58.670Z,100475.38
2023-05-10T03:27:28.429Z,100470.19
2023-05-10T03:29:56.200Z,100477.13
2023-05-10T03:32:25.631Z,100474.50
2023-05-10T03:34:52.246Z,100466.53
2023-05-10T03:37:21.429Z,100474.34
2023-05-10T03:39:50.460Z,100476.84
2023-05-10T03:42:18.889Z,100466.59
2023-05-10T03:44:50.554Z,100469.19
2023-05-10T03:47:17.754Z,100470.88
2023-05-10T03:49:44.499Z,100469.97
2023-05-10T03:52:17.055Z,100468.09
2023-05-10T03:54:43.730Z,100470.69
2023-05-10T03:57:10.720Z,100474.34
2023-05-10T03:59:37.479Z,100470.88
2023-05-10T04:02:07.002Z,100472.59
2023-05-10T04:04:33.761Z,100469.91
2023-05-10T04:07:00.445Z,100469.03
2023-05-10T04:09:27.428Z,100475.09
2023-05-10T04:11:54.069Z,100476.09
2023-05-10T04:14:20.722Z,100471.81
2023-05-10T04:16:50.195Z,100474.34
2023-05-10T04:19:16.853Z,100461.47
2023-05-10T04:21:45.742Z,100465.81
2023-05-10T04:24:13.532Z,100470.25
2023-05-10T04:26:40.222Z,100465.16
2023-05-10T04:29:06.802Z,100464.41
2023-05-10T04:31:37.398Z,100473.88
2023-05-10T04:34:04.088Z,100475.38
2023-05-10T04:36:30.761Z,100479.63
2023-05-10T04:38:59.772Z,100480.56
2023-05-10T04:41:26.451Z,100481.28
2023-05-10T04:43:53.108Z,100485.59
2023-05-10T04:46:19.828Z,100474.25
2023-05-10T04:48:46.601Z,100471.72
2023-05-10T04:51:13.396Z,100482.25
2023-05-10T04:53:39.981Z,100476.16
2023-05-10T04:59:00.225Z,100477.03
2023-05-10T05:01:29.758Z,100479.72
2023-05-10T05:03:56.590Z,100479.78
2023-05-10T05:06:23.401Z,100474.72
2023-05-10T05:08:50.830Z,100474.75
2023-05-10T05:11:17.962Z,100473.00
2023-05-10T05:13:44.711Z,100485.22
2023-05-10T05:16:12.417Z,100472.91
2023-05-10T05:18:41.466Z,100482.72
2023-05-10T05:21:14.737Z,100475.38
2023-05-10T05:23:44.021Z,100475.53
2023-05-10T05:26:10.759Z,100490.34
2023-05-10T05:28:40.074Z,100485.25
2023-05-10T05:31:11.976Z,100488.22
2023-05-10T05:33:41.126Z,100486.91
2023-05-10T05:36:09.324Z,100492.47
2023-05-10T05:38:36.339Z,100491.91
2023-05-10T05:41:03.674Z,100493.91
2023-05-10T05:43:34.566Z,100497.38
2023-05-10T05:46:04.317Z,100492.25
2023-05-10T05:48:31.281Z,100497.66
2023-05-10T05:50:58.077Z,100499.19
2023-05-10T05:53:27.231Z,100506.69
2023-05-10T05:55:58.169Z,100497.75
2023-05-10T05:58:25.272Z,100508.84
2023-05-10T06:00:53.010Z,100513.19
2023-05-10T06:03:19.901Z,100512.41
2023-05-10T06:05:51.569Z,100506.25
2023-05-10T06:08:18.372Z,100508.91
2023-05-10T06:10:45.614Z,100505.53
2023-05-10T06:13:14.664Z,100510.81
2023-05-10T06:15:41.364Z,100511.03
2023-05-10T06:18:08.101Z,100511.09
2023-05-10T06:20:34.837Z,100507.41
2023-05-10T06:23:01.476Z,100507.41
2023-05-10T06:25:30.320Z,100508.91
2023-05-10T06:27:59.005Z,100515.81
2023-05-10T06:30:28.541Z,100513.09
2023-05-10T06:32:57.733Z,100517.22
2023-05-10T06:35:27.162Z,100516.72
2023-05-10T06:37:54.211Z,100513.56
2023-05-10T06:40:23.334Z,100515.44
2023-05-10T06:42:52.364Z,100516.44
2023-05-10T06:45:19.547Z,100514.66
2023-05-10T06:47:47.236Z,100513.81
2023-05-10T06:50:16.435Z,100509.22
2023-05-10T06:52:44.218Z,100515.63
2023-05-10T06:55:13.587Z,100519.91
2023-05-10T06:57:40.360Z,100508.72
2023-05-10T07:00:07.400Z,100513.94
2023-05-10T07:02:36.597Z,100518.47
2023-05-10T07:05:03.765Z,100512.84
2023-05-10T07:07:30.874Z,100520.34
2023-05-10T07:10:01.103Z,100518.84
2023-05-10T07:12:27.855Z,100509.38
2023-05-10T07:14:59.323Z,100502.28
2023-05-10T07:17:26.232Z,100510.81
2023-05-10T07:19:52.997Z,100512.81
2023-05-10T07:22:22.547Z,100504.41
2023-05-10T07:24:49.503Z,100507.28
2023-05-10T07:27:16.079Z,100495.09
2023-05-10T07:29:43.178Z,100496.06
2023-05-10T07:32:12.192Z,100496.34
2023-05-10T07:34:41.319Z,100494.97
2023-05-10T07:37:08.437Z,100488.28
2023-05-10T07:39:35.478Z,100493.47
2023-05-10T07:42:02.075Z,100492.53
2023-05-10T07:44:28.653Z,100488.31
2023-05-10T07:46:57.651Z,100491.03
2023-05-10T07:49:27.259Z,100489.41
2023-05-10T07:51:56.458Z,100492.94
2023-05-10T07:54:23.459Z,100486.84
2023-05-10T07:56:52.706Z,100492.16
2023-05-10T07:59:19.681Z,100494.16
2023-05-10T08:01:46.744Z,100489.22
2023-05-10T08:04:18.645Z,100480.59
2023-05-10T08:06:48.296Z,100484.06
2023-05-10T08:09:16.996Z,100488.47
2023-05-10T08:11:46.828Z,100483.44
2023-05-10T08:14:15.878Z,100481.81
2023-05-10T08:16:45.431Z,100482.81
2023-05-10T08:19:12.183Z,100481.13
2023-05-10T08:21:39.244Z,100487.25
2023-05-10T08:24:05.999Z,100484.59
2023-05-10T08:26:33.469Z,100485.47
2023-05-10T08:29:00.134Z,100485.50
2023-05-10T08:31:26.842Z,100483.78
2023-05-10T08:33:53.763Z,100477.69
2023-05-10T08:36:25.427Z,100479.47
2023-05-10T08:38:53.209Z,100475.94
2023-05-10T08:41:22.802Z,100482.97
2023-05-10T08:43:51.818Z,100480.31
2023-05-10T08:46:19.318Z,100474.19
2023-05-10T08:48:46.618Z,100476.00
2023-05-10T08:51:20.660Z,100473.34
2023-05-10T08:53:47.296Z,100478.63
2023-05-10T08:56:14.005Z,100468.97
2023-05-10T08:58:46.209Z,100480.31
2023-05-10T09:01:12.953Z,100476.81
2023-05-10T09:03:39.688Z,100467.94
2023-05-10T09:06:08.960Z,100475.91
2023-05-10T09:08:35.860Z,100473.25
2023-05-10T09:11:02.766Z,100476.69
2023-05-10T09:13:29.388Z,100472.28
2023-05-10T09:15:56.388Z,100472.25
2023-05-10T09:18:27.831Z,100470.44
2023-05-10T09:20:54.768Z,100463.47
2023-05-10T09:23:21.618Z,100475.84
2023-05-10T09:25:50.508Z,100472.38
2023-05-10T09:28:19.638Z,100471.44
2023-05-10T09:30:46.409Z,100469.44
2023-05-10T09:33:13.216Z,100474.53
2023-05-10T09:35:41.207Z,100466.66
2023-05-10T09:38:07.902Z,100460.63
2023-05-10T09:40:34.732Z,100463.25
2023-05-10T09:43:05.090Z,100456.94
2023-05-10T09:45:32.303Z,100456.66
2023-05-10T09:47:59.873Z,100451.06
2023-05-10T09:50:26.725Z,100450.16
2023-05-10T09:53:00.874Z,100445.06
2023-05-10T09:55:39.906Z,100452.59
2023-05-10T09:58:10.515Z,100454.41
2023-05-10T10:00:37.890Z,100447.06
2023-05-10T10:03:07.396Z,100437.09
2023-05-10T10:05:34.901Z,100436.88
2023-05-10T10:08:04.711Z,100434.22
2023-05-10T10:10:32.184Z,100433.31
2023-05-10T10:12:58.982Z,100434.72
2023-05-10T10:15:30.238Z,100429.22
2023-05-10T10:17:57.089Z,100429.41
2023-05-10T10:20:26.521Z,100431.75
2023-05-10T10:22:53.773Z,100429.88
2023-05-10T10:25:21.182Z,100420.28
2023-05-10T10:27:54.139Z,100425.06
2023-05-10T10:30:30.715Z,100411.66
2023-05-10T10:33:13.265Z,100404.75
2023-05-10T10:35:46.623Z,100424.59
2023-05-10T10:38:18.816Z,100412.16
2023-05-10T10:40:50.471Z,100408.66
2023-05-10T10:43:28.249Z,100405.81
2023-05-10T10:46:16.204Z,100408.84
2023-05-10T10:48:52.742Z,100398.72
2023-05-10T10:51:21.295Z,100388.34
2023-05-10T10:53:48.857Z,100399.13
2023-05-10T10:56:16.910Z,100398.69
2023-05-10T10:58:43.506Z,100392.59
2023-05-10T11:01:19.451Z,100395.19
2023-05-10T11:04:01.579Z,100386.09
2023-05-10T11:06:35.521Z,100376.47
2023-05-10T11:09:12.421Z,100365.38
2023-05-10T11:11:59.180Z,100364.03
2023-05-10T11:14:25.840Z,100371.94
2023-05-10T11:16:55.045Z,100366.84
2023-05-10T11:19:21.673Z,100374.66
2023-05-10T11:21:49.242Z,100369.50
2023-05-10T11:24:23.090Z,100366.91
2023-05-10T11:26:54.811Z,100360.16
2023-05-10T11:29:21.515Z,100364.53
2023-05-10T11:31:50.812Z,100348.53
2023-05-10T11:34:26.499Z,100359.25
2023-05-10T11:36:56.308Z,100360.50
2023-05-10T11:39:31.248Z,100360.50
2023-05-10T11:41:58.508Z,100353.44
2023-05-10T11:44:30.224Z,100347.31
2023-05-10T11:46:59.153Z,100349.06
2023-05-10T11:49:25.861Z,100344.63
2023-05-10T11:51:52.455Z,100342.03
2023-05-10T11:54:19.847Z,100342.94
2023-05-10T11:56:46.579Z,100358.28
2023-05-10T11:59:14.964Z,100356.63
2023-05-10T12:01:49.729Z,100355.00
2023-05-10T12:04:16.402Z,100363.22
2023-05-10T12:06:43.176Z,100349.25
2023-05-10T12:09:09.767Z,100357.06
2023-05-10T12:11:43.982Z,100349.78
2023-05-10T12:14:11.662Z,100346.88
2023-05-10T12:16:41.729Z,100345.72
2023-05-10T12:19:11.160Z,100349.94
2023-05-10T12:21:42.439Z,100348.69
2023-05-10T12:24:11.595Z,100355.88
2023-05-10T12:26:56.315Z,100342.63
2023-05-10T12:29:23.791Z,100344.47
2023-05-10T12:31:59.566Z,100347.34
2023-05-10T12:34:34.739Z,100336.25
2023-05-10T12:37:04.060Z,100334.19
2023-05-10T12:39:43.784Z,100328.22
2023-05-10T12:42:10.674Z,100330.16
2023-05-10T12:44:37.314Z,100322.13
2023-05-10T12:47:03.987Z,100314.56
2023-05-10T12:49:30.713Z,100317.94
2023-05-10T12:51:57.436Z,100308.38
2023-05-10T12:54:26.800Z,100318.38
2023-05-10T12:56:55.158Z,100312.41
2023-05-10T12:59:21.930Z,100314.84
2023-05-10T13:01:51.102Z,100312.66
2023-05-10T13:04:17.809Z,100304.91
2023-05-10T13:06:47.320Z,100302.97
2023-05-10T13:09:13.964Z,100314.38
2023-05-10T13:11:40.693Z,100300.31
2023-05-10T13:14:15.574Z,100299.00
2023-05-10T13:16:42.247Z,100287.44
2023-05-10T13:19:12.589Z,100292.84
2023-05-10T13:21:39.298Z,100289.34
2023-05-10T13:24:08.414Z,100288.66
2023-05-10T13:26:37.542Z,100281.06
2023-05-10T13:29:04.370Z,100275.03
2023-05-10T13:31:31.070Z,100267.38
2023-05-10T13:33:57.709Z,100270.28
2023-05-10T13:36:24.391Z,100264.69
2023-05-10T13:38:51.194Z,100267.31
2023-05-10T13:41:20.178Z,100259.91
2023-05-10T13:43:46.853Z,100258.03
2023-05-10T13:46:13.514Z,100264.19
2023-05-10T13:48:40.214Z,100261.63
2023-05-10T13:51:11.707Z,100240.88
2023-05-10T13:53:38.354Z,100260.84
2023-05-10T13:56:04.974Z,100251.94
2023-05-10T13:58:31.560Z,100247.16
2023-05-10T14:00:58.328Z,100241.50
2023-05-10T14:03:25.069Z,100243.38
2023-05-10T14:05:54.165Z,100244.56
2023-05-10T14:08:27.164Z,100234.97
2023-05-10T14:10:56.160Z,100234.38
2023-05-10T14:13:22.867Z,100232.38
2023-05-10T14:15:49.539Z,100232.13
2023-05-10T14:18:20.894Z,100224.47
2023-05-10T14:20:52.313Z,100223.59
2023-05-10T14:23:24.998Z,100234.03
2023-05-10T14:25:56.283Z,100216.00
2023-05-10T14:28:26.067Z,100222.06
2023-05-10T14:31:00.010Z,100226.97
2023-05-10T14:33:36.404Z,100221.63
2023-05-10T14:36:12.608Z,100213.22
2023-05-10T14:38:42.069Z,100224.91
2023-05-10T14:41:10.543Z,100232.72
2023-05-10T14:43:40.843Z,100216.66
2023-05-10T14:46:07.695Z,100222.56
2023-05-10T14:48:34.362Z,100229.34
2023-05-10T14:51:00.924Z,100219.75
2023-05-10T14:53:33.707Z,100212.59
2023-05-10T14:56:02.201Z,100219.56
2023-05-10T14:58:28.991Z,100219.69
2023-05-10T15:00:58.215Z,100213.00
2023-05-10T15:03:30.326Z,100218.47
2023-05-10T15:05:59.926Z,100231.41
2023-05-10T15:08:29.109Z,100221.97
2023-05-10T15:10:56.916Z,100225.88
2023-05-10T15:13:23.569Z,100231.59
2023-05-10T15:15:50.298Z,100230.59
2023-05-10T15:18:21.572Z,100235.56
2023-05-10T15:20:48.324Z,100238.34
2023-05-10T15:23:19.641Z,100234.66
2023-05-10T15:25:46.310Z,100229.25
2023-05-10T15:28:13.026Z,100230.44
2023-05-10T15:30:39.826Z,100229.34
2023-05-10T15:33:06.834Z,100229.63
2023-05-10T15:35:34.434Z,100229.88
2023-05-10T15:38:01.052Z,100227.53
2023-05-10T15:40:30.640Z,100219.63
2023-05-10T15:42:57.252Z,100223.56
2023-05-10T15:45:28.730Z,100216.84
2023-05-10T15:47:57.973Z,100225.97
2023-05-10T15:50:27.605Z,100220.72
2023-05-10T15:52:54.303Z,100220.84
2023-05-10T15:55:21.001Z,100219.38
2023-05-10T15:57:50.525Z,100222.19
2023-05-10T16:00:17.875Z,100217.09
2023-05-10T16:02:44.500Z,100219.00
2023-05-10T16:05:14.043Z,100213.84
2023-05-10T16:07:42.046Z,100219.09
2023-05-10T16:10:10.052Z,100226.06
2023-05-10T16:12:39.779Z,100221.00
2023-05-10T16:15:08.989Z,100219.38
2023-05-10T16:17:36.056Z,100232.00
2023-05-10T16:20:05.949Z,100222.44
2023-05-10T16:22:35.370Z,100215.38
2023-05-10T16:25:05.012Z,100218.88
2023-05-10T16:27:34.138Z,100217.16
2023-05-10T16:30:03.681Z,100226.88
2023-05-10T16:32:33.354Z,100219.03
2023-05-10T16:35:00.412Z,100227.97
2023-05-10T16:37:27.434Z,100222.06
2023-05-10T16:39:56.765Z,100232.81
2023-05-10T16:42:28.613Z,100234.69
2023-05-10T16:44:55.284Z,100232.25
2023-05-10T16:47:27.495Z,100235.16
2023-05-10T16:49:54.243Z,100238.00
2023-05-10T16:52:21.006Z,100238.13
2023-05-10T16:54:47.630Z,100237.44
2023-05-10T16:57:16.858Z,100244.53
2023-05-10T16:59:43.649Z,100248.16
2023-05-10T17:02:13.973Z,100239.44
2023-05-10T17:04:40.769Z,100250.06
2023-05-10T17:07:09.117Z,100251.06
2023-05-10T17:09:35.887Z,100255.63
2023-05-10T17:12:05.012Z,100253.09
2023-05-10T17:14:31.905Z,100258.50
2023-05-10T17:17:05.874Z,100257.69
2023-05-10T17:19:35.579Z,100255.19
2023-05-10T17:22:04.750Z,100263.19
2023-05-10T17:24:31.811Z,100260.69
2023-05-10T17:27:00.831Z,100259.78
2023-05-10T17:29:31.972Z,100267.75
2023-05-10T17:31:59.011Z,100264.28
2023-05-10T17:34:25.835Z,100269.56
2023-05-10T17:36:52.489Z,100266.09
2023-05-10T17:39:24.000Z,100276.66
2023-05-10T17:41:50.794Z,100279.31
2023-05-10T17:44:17.527Z,100275.91
2023-05-10T17:46:44.312Z,100272.44
2023-05-10T17:49:10.996Z,100281.22
2023-05-10T17:51:37.790Z,100279.50
2023-05-10T17:54:07.289Z,100282.16
2023-05-10T17:56:33.881Z,100278.69
2023-05-10T17:59:02.993Z,100287.47
2023-05-10T18:01:29.773Z,100287.44
2023-05-10T18:03:56.394Z,100282.25
2023-05-10T18:06:23.563Z,100289.25
2023-05-10T18:08:52.722Z,100293.66
2023-05-10T18:11:19.335Z,100291.91
2023-05-10T18:13:45.970Z,100291.94
2023-05-10T18:16:17.705Z,100297.22
2023-05-10T18:18:44.797Z,100298.97
2023-05-10T18:21:14.138Z,100303.34
2023-05-10T18:23:40.772Z,100305.06
2023-05-10T18:26:10.504Z,100308.53
2023-05-10T18:28:39.457Z,100312.88
2023-05-10T18:31:06.113Z,100315.50
2023-05-10T18:33:38.618Z,100314.59
2023-05-10T18:36:05.402Z,100318.13
2023-05-10T18:38:34.545Z,100324.22
2023-05-10T18:41:01.587Z,100313.69
2023-05-10T18:43:30.689Z,100321.56
2023-05-10T18:45:57.384Z,100325.06
2023-05-10T18:48:26.447Z,100323.31
2023-05-10T18:50:53.084Z,100325.91
2023-05-10T18:53:24.900Z,100325.88
2023-05-10T18:56:00.893Z,100331.13
2023-05-10T18:58:27.898Z,100333.75
2023-05-10T19:00:58.643Z,100327.63
2023-05-10T19:03:27.600Z,100331.97
2023-05-10T19:05:57.135Z,100338.97
2023-05-10T19:08:23.743Z,100344.22
2023-05-10T19:10:50.931Z,100347.69
2023-05-10T19:13:17.919Z,100343.31
2023-05-10T19:15:44.595Z,100341.53
2023-05-10T19:18:15.307Z,100340.66
2023-05-10T19:20:42.533Z,100345.06
2023-05-10T19:23:10.416Z,100347.66
2023-05-10T19:25:37.603Z,100344.13
2023-05-10T19:28:11.511Z,100346.72
2023-05-10T19:30:38.583Z,100340.63
2023-05-10T19:33:10.481Z,100347.56
2023-05-10T19:35:40.265Z,100349.25
2023-05-10T19:38:07.095Z,100343.19
2023-05-10T19:40:34.213Z,100351.91
2023-05-10T19:43:00.830Z,100352.72
2023-05-10T19:45:30.320Z,100349.22
2023-05-10T19:47:57.141Z,100347.50
2023-05-10T19:50:23.820Z,100344.84
2023-05-10T19:52:51.593Z,100343.97
2023-05-10T19:55:26.249Z,100339.56
2023-05-10T19:57:53.007Z,100344.78
2023-05-10T20:00:20.067Z,100342.19
2023-05-10T20:02:46.694Z,100339.56
2023-05-10T20:05:13.427Z,100343.00
2023-05-10T20:07:39.987Z,100346.53
2023-05-10T20:10:06.976Z,100340.34
2023-05-10T20:12:33.661Z,100343.84
2023-05-10T20:15:00.220Z,100344.63
2023-05-10T20:17:29.240Z,100347.28
2023-05-10T20:19:55.840Z,100349.88
2023-05-10T20:22:22.551Z,100349.84
2023-05-10T20:24:49.155Z,100347.19
2023-05-10T20:27:16.094Z,100350.69
2023-05-10T20:29:45.168Z,100354.16
2023-05-10T20:32:14.385Z,100350.66
2023-05-10T20:34:45.815Z,100353.28
2023-05-10T20:37:13.432Z,100348.03
2023-05-10T20:39:42.450Z,100350.59
2023-05-10T20:42:09.170Z,100355.81
2023-05-10T20:44:36.025Z,100354.94
2023-05-10T20:47:02.682Z,100357.53
2023-05-10T20:49:31.791Z,100353.19
2023-05-10T20:51:58.455Z,100355.78
2023-05-10T20:54:25.101Z,100353.06
2023-05-10T20:56:51.687Z,100351.31
2023-05-10T20:59:18.735Z,100350.38
2023-05-10T21:01:49.884Z,100346.81
2023-05-10T21:04:19.437Z,100350.31
2023-05-10T21:06:46.188Z,100350.34
2023-05-10T21:09:15.761Z,100346.06
2023-05-10T21:11:44.729Z,100346.91
2023-05-10T21:14:11.417Z,100342.50
2023-05-10T21:16:38.199Z,100342.53
2023-05-10T21:19:07.706Z,100346.03
2023-05-10T21:21:36.872Z,100336.38
2023-05-10T21:24:05.914Z,100343.41
2023-05-10T21:26:32.593Z,100345.16
2023-05-10T21:29:01.803Z,100340.75
2023-05-10T21:31:28.782Z,100349.47
2023-05-10T21:33:55.409Z,100353.00
2023-05-10T21:36:22.110Z,100342.53
2023-05-10T21:38:50.878Z,100347.78
2023-05-10T21:41:17.627Z,100346.81
2023-05-10T21:43:44.180Z,100344.00
2023-05-10T21:46:13.064Z,100342.28
2023-05-10T21:48:39.925Z,100349.31
2023-05-10T21:51:07.215Z,100346.78
2023-05-10T21:53:34.129Z,100348.53
2023-05-10T21:56:00.819Z,100351.19
2023-05-10T21:58:27.778Z,100349.38
2023-05-10T22:00:54.627Z,100347.56
2023-05-10T22:03:26.656Z,100348.50
2023-05-10T22:05:53.440Z,100354.69
2023-05-10T22:08:20.105Z,100358.19
2023-05-10T22:10:46.815Z,100351.22
2023-05-10T22:13:13.525Z,100350.31
2023-05-10T22:15:40.207Z,100354.69
2023-05-10T22:18:06.848Z,100351.25
2023-05-10T22:20:35.810Z,100352.13
2023-05-10T22:23:02.803Z,100353.91
2023-05-10T22:25:29.372Z,100348.63
2023-05-10T22:27:55.978Z,100360.78
2023-05-10T22:30:23.009Z,100353.84
2023-05-10T22:32:49.586Z,100361.66
2023-05-10T22:35:18.630Z,100367.78
2023-05-10T22:37:50.675Z,100358.22
2023-05-10T22:40:17.553Z,100358.25
2023-05-10T22:42:44.311Z,100359.06
2023-05-10T22:45:13.774Z,100366.00
2023-05-10T22:47:42.826Z,100366.84
2023-05-10T22:50:11.866Z,100365.88
2023-05-10T22:52:41.286Z,100370.91
2023-05-10T22:55:08.460Z,100368.31
2023-05-10T22:57:37.601Z,100369.22
2023-05-10T23:00:05.350Z,100374.41
2023-05-10T23:02:32.174Z,100369.94
2023-05-10T23:05:01.207Z,100375.22
2023-05-10T23:07:30.211Z,100373.50
2023-05-10T23:09:56.966Z,100372.56
2023-05-10T23:12:23.756Z,100370.84
2023-05-10T23:14:50.661Z,100374.97
2023-05-10T23:17:17.392Z,100370.56
2023-05-10T23:19:46.362Z,100367.94
2023-05-10T23:22:15.103Z,100359.19
2023-05-10T23:24:44.194Z,100370.50
2023-05-10T23:27:11.363Z,100371.38
2023-05-10T23:29:38.006Z,100367.75
2023-05-10T23:32:04.830Z,100378.19
2023-05-10T23:34:32.322Z,100374.59
2023-05-10T23:37:01.523Z,100371.88
2023-05-10T23:39:28.324Z,100374.53
2023-05-10T23:41:57.382Z,100378.81
2023-05-10T23:44:26.876Z,100377.13
2023-05-10T23:46:53.566Z,100378.97
2023-05-10T23:49:22.876Z,100385.13
2023-05-10T23:51:52.480Z,100381.69
2023-05-10T23:54:24.454Z,100378.25
2023-05-10T23:56:51.622Z,100380.88
2023-05-10T23:59:20.759Z,100382.56
